x

Destruction Island, Wa (desw1) Weather Station

10:00am - Tue 21st Nov 2017 All times are PST. -8 hours from GMT.

  • Wind
    40mph, 44mph gusts
  • Air Temp 54°f
  • Sea Pressure 1008.5mb
  • Destruction Island, Wa
  • Destruction Island, Wa

More Historic Weather Station data

Upgrade to MSW Pro to gain access to the past 30 days of data for over 8000 Wavebouys and Weather Stations around the globe.

Join

Comparision Forecast

View Surf forecast
   
Tue 11/21 10:00am 40 44 mph 1008.5mb 54f
9:00am 38 44 mph 1009.1mb 54f
8:00am 37 43 mph 1008.4mb 53f
7:00am 38 43 mph 1008.6mb 52f
6:00am 17 22 mph 1010.2mb 49f
5:00am 8 9 mph 1010.5mb 45f
4:00am 11 15 mph 1011.6mb 42f
3:00am 11 13 mph 1013.2mb 42f
2:00am 10 13 mph 1013.3mb 41f
1:00am 10 13 mph 1014.2mb 41f
12:00am 13 16 mph 1015.1mb 40f
Mon 11/20 11:00pm 13 15 mph 1015.7mb 41f
10:00pm 15 16 mph 1016.3mb 42f
9:00pm 10 11 mph 1016.5mb 42f
8:00pm 10 11 mph 1015.7mb 43f
7:00pm 8 8 mph 1015.3mb 44f
6:00pm 6 7 mph 1014.3mb 46f
5:00pm  -  0 mph 1013.3mb 48f
4:00pm  -  0 mph 1012.8mb 49f
3:00pm  -  0 mph 1012.5mb 50f
2:00pm 8 9 mph 1011.4mb 50f
1:00pm 11 13 mph 1010.8mb 49f
12:00pm 11 13 mph 1009.6mb 50f
11:00am 17 18 mph 1007.8mb 49f
10:00am 21 22 mph 1006.2mb 48f
9:00am 21 22 mph 1004.4mb 48f
8:00am 20 21 mph 1002.7mb 48f
7:00am 18 21 mph 1001.4mb 48f
6:00am 21
mph
1000.5mb 49f
5:00am 18 20 mph 1000.2mb 49f
4:00am 16 17 mph 999.6mb 49f
3:00am 13 14 mph 1000mb 49f
2:00am 11 13 mph 1000mb 48f
1:00am  -  0 mph 1000.1mb 49f
12:00am 13 14 mph 999.9mb 48f
Sun 11/19 11:00pm 11 15 mph 999.3mb 49f
10:00pm 26 31 mph 999mb 49f
9:00pm 31 36 mph 998.6mb 47f
8:00pm 31 34 mph 998.8mb 47f
7:00pm 26 30 mph 1000mb 47f
6:00pm 37 41 mph 1000.6mb 50f
5:00pm 45 49 mph 1000.5mb 50f
4:00pm 39 46 mph 1001.9mb 50f
3:00pm 38 44 mph 1003mb 50f
2:00pm 46 51 mph 1003.7mb 49f
1:00pm 48 54 mph 1005.1mb 49f
12:00pm 44 49 mph 1006.4mb 47f
11:00am 38 43 mph 1007.1mb 45f
10:00am 37 41 mph 1008.5mb 45f
9:00am 37 43 mph 1009.5mb 45f
8:00am 38 43 mph 1010.3mb 46f
7:00am 39 44 mph 1011.2mb 46f
6:00am 38 47 mph 1012.1mb 46f
5:00am 39 45 mph 1012.7mb 46f
4:00am 34 39 mph 1013.4mb 47f
3:00am 36 40 mph 1014.6mb 46f
2:00am 32 36 mph 1015.3mb 47f
1:00am 32 36 mph 1015.9mb 48f
12:00am 30 32 mph 1016.6mb 48f
Sat 11/18 11:00pm 29 32 mph 1017.1mb 48f
10:00pm 30 32 mph 1017.4mb 48f
9:00pm 30 32 mph 1017.7mb 48f
8:00pm 25 28 mph 1018.6mb 48f
7:00pm 24 26 mph 1019mb 48f
6:00pm 22 24 mph 1019.4mb 49f
5:00pm 20 22 mph 1019.8mb 49f
4:00pm 23 25 mph 1019.9mb 50f
3:00pm 20 21 mph 1020.3mb 49f
2:00pm 21 22 mph 1020.9mb 49f
1:00pm 23 25 mph 1021.5mb 48f
12:00pm 23 25 mph 1022.4mb 48f
11:00am 25 28 mph 1022.9mb 47f
10:00am 24 26 mph 1023.2mb 47f
9:00am 23 24 mph 1023.5mb 47f
8:00am 25 28 mph 1023.5mb 46f
7:00am 21 23 mph 1023.9mb 46f
6:00am 23 24 mph 1024mb 46f
5:00am 22 23 mph 1024mb 46f
4:00am 22 23 mph 1024.1mb 46f
3:00am 24 25 mph 1024.6mb 46f
2:00am 22 23 mph 1024.6mb 46f
1:00am 23 24 mph 1024.8mb 46f
12:00am 21 24 mph 1024.9mb 46f
Fri 11/17 11:00pm 20 22 mph 1024.8mb 46f
10:00pm 21 22 mph 1024.5mb 46f
9:00pm 18 20 mph 1024.2mb 46f
8:00pm 20 21 mph 1024mb 46f